Terminal Aerodrome Forecast
Issued by NWS

Home | Current Version | Previous Version | Text Only | Print | Product List | Glossary On
Versions: 1 2 3 4 5 6 7 8 9 10 11 12 13 14 15
114
FTUS44 KTSA 111720
TAFMLC
TAF
KMLC 111720Z 1118/1218 02012KT P6SM FEW250
     FM120000 02005KT P6SM SCT250
     FM120600 00000KT P6SM SCT250
     FM121500 36009KT P6SM BKN250=

USA.gov is the U.S. government's official web portal to all federal, state and local government web resources and services.